Terminal Aerodrome Forecast
Issued by NWS

Home | Current Version | Previous Version | Text Only | Print | Product List | Glossary On
Versions: 1 2 3 4 5 6 7 8 9 10 11 12 13 14 15 16 17 18 19 20 21 22 23 24
404
FTUS46 KPDT 242344
TAFPSC
TAF
KPSC 242344Z 2500/2524 21013KT P6SM BKN090 BKN110
     FM250600 21005KT P6SM SCT070 BKN100
     FM252000 23012KT P6SM BKN050 OVC070=

USA.gov is the U.S. government's official web portal to all federal, state and local government web resources and services.